<?xml version="1.0" encoding="UTF-8" standalone="no" ?>
<gpx xmlns="http://www.topografix.com/GPX/1/1" xmlns:xsi="http://www.w3.org/2001/XMLSchema-instance" xsi:schemaLocation="http://www.topografix.com/GPX/1/1 http://www.topografix.com/GPX/1/1/gpx.xsd" version="1.1" creator="VisuGPX - https://www.visugpx.com">
  <metadata>
    <name>Circuit telethon 14km</name>
    <desc><![CDATA[Circuit 14.3km téléthon 2016 à l'Abergement,facile]]></desc>
  </metadata>
  <trk>
    <name><![CDATA[OR-6610992--Abergement-Sainte-Colombe (L'):Circuit 14.3km]]></name>
    <trkseg>
      <trkpt lat="46.75267" lon="5.00723">
        <ele>200</ele>
        <time>2016-10-10T13:40:39Z</time>
      </trkpt>
      <trkpt lat="46.75285" lon="5.00609">
        <ele>198</ele>
        <time>2016-10-10T13:44:39Z</time>
      </trkpt>
      <trkpt lat="46.75321" lon="5.00621">
        <ele>197</ele>
        <time>2016-10-10T13:46:39Z</time>
      </trkpt>
      <trkpt lat="46.75444" lon="5.00481">
        <ele>195</ele>
        <time>2016-10-10T13:58:39Z</time>
      </trkpt>
      <trkpt lat="46.75497" lon="5.00509">
        <ele>197</ele>
        <time>2016-10-10T14:02:39Z</time>
      </trkpt>
      <trkpt lat="46.75776" lon="5.00399">
        <ele>207</ele>
        <time>2016-10-10T14:28:39Z</time>
      </trkpt>
      <trkpt lat="46.75894" lon="5.00506">
        <ele>207</ele>
        <time>2016-10-10T14:42:39Z</time>
      </trkpt>
      <trkpt lat="46.76017" lon="5.00711">
        <ele>203</ele>
        <time>2016-10-10T14:52:39Z</time>
      </trkpt>
      <trkpt lat="46.7608" lon="5.00746">
        <ele>201</ele>
        <time>2016-10-10T14:56:39Z</time>
      </trkpt>
      <trkpt lat="46.76238" lon="5.00489">
        <ele>207</ele>
        <time>2016-10-10T15:12:39Z</time>
      </trkpt>
      <trkpt lat="46.76362" lon="5.00475">
        <ele>208</ele>
        <time>2016-10-10T15:22:39Z</time>
      </trkpt>
      <trkpt lat="46.76537" lon="5.00371">
        <ele>210</ele>
        <time>2016-10-10T15:34:39Z</time>
      </trkpt>
      <trkpt lat="46.76599" lon="5.00169">
        <ele>210</ele>
        <time>2016-10-10T15:44:39Z</time>
      </trkpt>
      <trkpt lat="46.76841" lon="5.00448">
        <ele>215</ele>
        <time>2016-10-10T15:56:39Z</time>
      </trkpt>
      <trkpt lat="46.76953" lon="5.00661">
        <ele>211</ele>
        <time>2016-10-10T16:06:39Z</time>
      </trkpt>
      <trkpt lat="46.77002" lon="5.00515">
        <ele>212</ele>
        <time>2016-10-10T16:14:39Z</time>
      </trkpt>
      <trkpt lat="46.77373" lon="5.0077">
        <ele>216</ele>
        <time>2016-10-10T16:30:39Z</time>
      </trkpt>
      <trkpt lat="46.77366" lon="5.00844">
        <ele>218</ele>
        <time>2016-10-10T16:32:39Z</time>
      </trkpt>
      <trkpt lat="46.77623" lon="5.01045">
        <ele>221</ele>
        <time>2016-10-10T16:34:39Z</time>
      </trkpt>
      <trkpt lat="46.7903" lon="5.01692">
        <ele>207</ele>
        <time>2016-10-10T16:54:39Z</time>
      </trkpt>
      <trkpt lat="46.79023" lon="5.01916">
        <ele>206</ele>
        <time>2016-10-10T17:04:39Z</time>
      </trkpt>
      <trkpt lat="46.78939" lon="5.0216">
        <ele>200</ele>
        <time>2016-10-10T17:18:39Z</time>
      </trkpt>
      <trkpt lat="46.78636" lon="5.02411">
        <ele>197</ele>
        <time>2016-10-10T17:34:39Z</time>
      </trkpt>
      <trkpt lat="46.78712" lon="5.02529">
        <ele>199</ele>
        <time>2016-10-10T17:46:39Z</time>
      </trkpt>
      <trkpt lat="46.78724" lon="5.029">
        <ele>206</ele>
        <time>2016-10-10T18:06:39Z</time>
      </trkpt>
      <trkpt lat="46.78624" lon="5.03252">
        <ele>207</ele>
        <time>2016-10-10T18:24:39Z</time>
      </trkpt>
      <trkpt lat="46.78487" lon="5.03155">
        <ele>203</ele>
        <time>2016-10-10T18:38:39Z</time>
      </trkpt>
      <trkpt lat="46.78327" lon="5.03132">
        <ele>204</ele>
        <time>2016-10-10T18:52:39Z</time>
      </trkpt>
      <trkpt lat="46.78322" lon="5.03047">
        <ele>205</ele>
        <time>2016-10-10T18:56:39Z</time>
      </trkpt>
      <trkpt lat="46.78228" lon="5.03049">
        <ele>207</ele>
        <time>2016-10-10T19:04:39Z</time>
      </trkpt>
      <trkpt lat="46.7805" lon="5.02882">
        <ele>208</ele>
        <time>2016-10-10T19:16:39Z</time>
      </trkpt>
      <trkpt lat="46.77362" lon="5.02639">
        <ele>223</ele>
        <time>2016-10-10T19:28:39Z</time>
      </trkpt>
      <trkpt lat="46.77002" lon="5.02433">
        <ele>218</ele>
        <time>2016-10-10T19:36:39Z</time>
      </trkpt>
      <trkpt lat="46.76953" lon="5.02612">
        <ele>213</ele>
        <time>2016-10-10T19:44:39Z</time>
      </trkpt>
      <trkpt lat="46.76345" lon="5.03208">
        <ele>221</ele>
        <time>2016-10-10T19:52:39Z</time>
      </trkpt>
      <trkpt lat="46.76443" lon="5.03626">
        <ele>219</ele>
        <time>2016-10-10T19:58:39Z</time>
      </trkpt>
      <trkpt lat="46.76368" lon="5.04052">
        <ele>217</ele>
        <time>2016-10-10T20:06:39Z</time>
      </trkpt>
      <trkpt lat="46.75428" lon="5.0389">
        <ele>207</ele>
        <time>2016-10-10T20:26:39Z</time>
      </trkpt>
      <trkpt lat="46.75463" lon="5.03532">
        <ele>209</ele>
        <time>2016-10-10T20:36:39Z</time>
      </trkpt>
      <trkpt lat="46.75412" lon="5.03217">
        <ele>204</ele>
        <time>2016-10-10T20:42:39Z</time>
      </trkpt>
      <trkpt lat="46.75401" lon="5.02379">
        <ele>208</ele>
        <time>2016-10-10T20:50:39Z</time>
      </trkpt>
      <trkpt lat="46.75328" lon="5.02335">
        <ele>208</ele>
        <time>2016-10-10T20:54:39Z</time>
      </trkpt>
      <trkpt lat="46.75355" lon="5.02212">
        <ele>209</ele>
        <time>2016-10-10T20:56:39Z</time>
      </trkpt>
      <trkpt lat="46.7497" lon="5.02197">
        <ele>206</ele>
        <time>2016-10-10T21:10:39Z</time>
      </trkpt>
      <trkpt lat="46.75099" lon="5.01627">
        <ele>206</ele>
        <time>2016-10-10T21:28:39Z</time>
      </trkpt>
      <trkpt lat="46.75089" lon="5.01412">
        <ele>199</ele>
        <time>2016-10-10T21:44:39Z</time>
      </trkpt>
      <trkpt lat="46.75169" lon="5.01169">
        <ele>204</ele>
        <time>2016-10-10T21:54:39Z</time>
      </trkpt>
      <trkpt lat="46.75269" lon="5.01045">
        <ele>206</ele>
        <time>2016-10-10T22:00:39Z</time>
      </trkpt>
      <trkpt lat="46.75233" lon="5.0078">
        <ele>201</ele>
        <time>2016-10-10T22:06:39Z</time>
      </trkpt>
      <trkpt lat="46.75263" lon="5.00737">
        <ele>200</ele>
        <time>2016-10-10T22:12:39Z</time>
      </trkpt>
    </trkseg>
  </trk>
  <rte>
    <name><![CDATA[OR-6610992--Abergement-Sainte-Colombe (L'):Circuit 14.3km]]></name>
    <desc><![CDATA[Generated from track OR-6610992--Abergement-Sainte-Colombe (L'):Circuit 14.3km]]></desc>
      <rtept lat="46.75267" lon="5.00723">
        <ele>200</ele>
        <name><![CDATA[RPT001]]></name>
      </rtept>
      <rtept lat="46.75285" lon="5.00609">
        <ele>198</ele>
        <name><![CDATA[RPT002]]></name>
      </rtept>
      <rtept lat="46.75321" lon="5.00621">
        <ele>197</ele>
        <name><![CDATA[RPT003]]></name>
      </rtept>
      <rtept lat="46.75444" lon="5.00481">
        <ele>195</ele>
        <name><![CDATA[RPT004]]></name>
      </rtept>
      <rtept lat="46.75497" lon="5.00509">
        <ele>197</ele>
        <name><![CDATA[RPT005]]></name>
      </rtept>
      <rtept lat="46.75776" lon="5.00399">
        <ele>207</ele>
        <name><![CDATA[RPT006]]></name>
      </rtept>
      <rtept lat="46.75894" lon="5.00506">
        <ele>207</ele>
        <name><![CDATA[RPT007]]></name>
      </rtept>
      <rtept lat="46.76017" lon="5.00711">
        <ele>203</ele>
        <name><![CDATA[RPT008]]></name>
      </rtept>
      <rtept lat="46.7608" lon="5.00746">
        <ele>201</ele>
        <name><![CDATA[RPT009]]></name>
      </rtept>
      <rtept lat="46.76238" lon="5.00489">
        <ele>207</ele>
        <name><![CDATA[RPT010]]></name>
      </rtept>
      <rtept lat="46.76362" lon="5.00475">
        <ele>208</ele>
        <name><![CDATA[RPT011]]></name>
      </rtept>
      <rtept lat="46.76537" lon="5.00371">
        <ele>210</ele>
        <name><![CDATA[RPT012]]></name>
      </rtept>
      <rtept lat="46.76599" lon="5.00169">
        <ele>210</ele>
        <name><![CDATA[RPT013]]></name>
      </rtept>
      <rtept lat="46.76841" lon="5.00448">
        <ele>215</ele>
        <name><![CDATA[RPT014]]></name>
      </rtept>
      <rtept lat="46.76953" lon="5.00661">
        <ele>211</ele>
        <name><![CDATA[RPT015]]></name>
      </rtept>
      <rtept lat="46.77002" lon="5.00515">
        <ele>212</ele>
        <name><![CDATA[RPT016]]></name>
      </rtept>
      <rtept lat="46.77373" lon="5.0077">
        <ele>216</ele>
        <name><![CDATA[RPT017]]></name>
      </rtept>
      <rtept lat="46.77366" lon="5.00844">
        <ele>218</ele>
        <name><![CDATA[RPT018]]></name>
      </rtept>
      <rtept lat="46.77623" lon="5.01045">
        <ele>221</ele>
        <name><![CDATA[RPT019]]></name>
      </rtept>
      <rtept lat="46.7903" lon="5.01692">
        <ele>207</ele>
        <name><![CDATA[RPT020]]></name>
      </rtept>
      <rtept lat="46.79023" lon="5.01916">
        <ele>206</ele>
        <name><![CDATA[RPT021]]></name>
      </rtept>
      <rtept lat="46.78939" lon="5.0216">
        <ele>200</ele>
        <name><![CDATA[RPT022]]></name>
      </rtept>
      <rtept lat="46.78636" lon="5.02411">
        <ele>197</ele>
        <name><![CDATA[RPT023]]></name>
      </rtept>
      <rtept lat="46.78712" lon="5.02529">
        <ele>199</ele>
        <name><![CDATA[RPT024]]></name>
      </rtept>
      <rtept lat="46.78724" lon="5.029">
        <ele>206</ele>
        <name><![CDATA[RPT025]]></name>
      </rtept>
      <rtept lat="46.78624" lon="5.03252">
        <ele>207</ele>
        <name><![CDATA[RPT026]]></name>
      </rtept>
      <rtept lat="46.78487" lon="5.03155">
        <ele>203</ele>
        <name><![CDATA[RPT027]]></name>
      </rtept>
      <rtept lat="46.78327" lon="5.03132">
        <ele>204</ele>
        <name><![CDATA[RPT028]]></name>
      </rtept>
      <rtept lat="46.78322" lon="5.03047">
        <ele>205</ele>
        <name><![CDATA[RPT029]]></name>
      </rtept>
      <rtept lat="46.78228" lon="5.03049">
        <ele>207</ele>
        <name><![CDATA[RPT030]]></name>
      </rtept>
      <rtept lat="46.7805" lon="5.02882">
        <ele>208</ele>
        <name><![CDATA[RPT031]]></name>
      </rtept>
      <rtept lat="46.77362" lon="5.02639">
        <ele>223</ele>
        <name><![CDATA[RPT032]]></name>
      </rtept>
      <rtept lat="46.77002" lon="5.02433">
        <ele>218</ele>
        <name><![CDATA[RPT033]]></name>
      </rtept>
      <rtept lat="46.76953" lon="5.02612">
        <ele>213</ele>
        <name><![CDATA[RPT034]]></name>
      </rtept>
      <rtept lat="46.76345" lon="5.03208">
        <ele>221</ele>
        <name><![CDATA[RPT035]]></name>
      </rtept>
      <rtept lat="46.76443" lon="5.03626">
        <ele>219</ele>
        <name><![CDATA[RPT036]]></name>
      </rtept>
      <rtept lat="46.76368" lon="5.04052">
        <ele>217</ele>
        <name><![CDATA[RPT037]]></name>
      </rtept>
      <rtept lat="46.75428" lon="5.0389">
        <ele>207</ele>
        <name><![CDATA[RPT038]]></name>
      </rtept>
      <rtept lat="46.75463" lon="5.03532">
        <ele>209</ele>
        <name><![CDATA[RPT039]]></name>
      </rtept>
      <rtept lat="46.75412" lon="5.03217">
        <ele>204</ele>
        <name><![CDATA[RPT040]]></name>
      </rtept>
      <rtept lat="46.75401" lon="5.02379">
        <ele>208</ele>
        <name><![CDATA[RPT041]]></name>
      </rtept>
      <rtept lat="46.75328" lon="5.02335">
        <ele>208</ele>
        <name><![CDATA[RPT042]]></name>
      </rtept>
      <rtept lat="46.75355" lon="5.02212">
        <ele>209</ele>
        <name><![CDATA[RPT043]]></name>
      </rtept>
      <rtept lat="46.7497" lon="5.02197">
        <ele>206</ele>
        <name><![CDATA[RPT044]]></name>
      </rtept>
      <rtept lat="46.75099" lon="5.01627">
        <ele>206</ele>
        <name><![CDATA[RPT045]]></name>
      </rtept>
      <rtept lat="46.75089" lon="5.01412">
        <ele>199</ele>
        <name><![CDATA[RPT046]]></name>
      </rtept>
      <rtept lat="46.75169" lon="5.01169">
        <ele>204</ele>
        <name><![CDATA[RPT047]]></name>
      </rtept>
      <rtept lat="46.75269" lon="5.01045">
        <ele>206</ele>
        <name><![CDATA[RPT048]]></name>
      </rtept>
      <rtept lat="46.75233" lon="5.0078">
        <ele>201</ele>
        <name><![CDATA[RPT049]]></name>
      </rtept>
      <rtept lat="46.75263" lon="5.00737">
        <ele>200</ele>
        <name><![CDATA[RPT050]]></name>
      </rtept>
    </rte>
</gpx>